createdAt,value
2023-01-27T00:01:10.085Z,30.35
2023-01-27T00:03:36.948Z,28.20
2023-01-27T00:06:04.863Z,36.95
2023-01-27T00:08:31.775Z,42.80
2023-01-27T00:11:18.235Z,31.80
2023-01-27T00:13:45.114Z,28.23
2023-01-27T00:16:12.042Z,30.95
2023-01-27T00:18:38.861Z,30.70
2023-01-27T00:21:24.333Z,33.15
2023-01-27T00:24:10.059Z,29.10
2023-01-27T00:26:36.918Z,27.98
2023-01-27T00:29:03.771Z,26.63
2023-01-27T00:31:50.747Z,27.25
2023-01-27T00:34:17.660Z,33.35
2023-01-27T00:36:44.689Z,35.30
2023-01-27T00:39:12.831Z,31.60
2023-01-27T00:41:41.210Z,34.95
2023-01-27T00:44:13.096Z,32.75
2023-01-27T00:46:41.839Z,34.00
2023-01-27T00:49:10.059Z,34.53
2023-01-27T00:51:37.079Z,38.72
2023-01-27T00:54:05.098Z,37.15
2023-01-27T00:56:32.379Z,37.30
2023-01-27T00:58:59.496Z,35.50
2023-01-27T01:01:26.573Z,30.30
2023-01-27T01:03:53.426Z,34.65
2023-01-27T01:06:21.748Z,33.05
2023-01-27T01:08:48.811Z,34.17
2023-01-27T01:11:17.449Z,37.25
2023-01-27T01:13:45.788Z,33.88
2023-01-27T01:16:15.996Z,37.25
2023-01-27T01:18:43.535Z,30.00
2023-01-27T01:21:11.101Z,37.80
2023-01-27T01:23:41.459Z,33.42
2023-01-27T01:26:10.626Z,33.80
2023-01-27T01:28:38.691Z,35.47
2023-01-27T01:31:09.632Z,40.90
2023-01-27T01:33:37.248Z,39.63
2023-01-27T01:36:15.810Z,43.47
2023-01-27T01:38:43.126Z,42.88
2023-01-27T01:41:13.805Z,38.67
2023-01-27T01:43:40.679Z,40.67
2023-01-27T01:46:10.142Z,38.05
2023-01-27T01:48:59.903Z,36.55
2023-01-27T01:51:39.693Z,38.05
2023-01-27T01:54:42.354Z,41.30
2023-01-27T01:57:23.214Z,37.03
2023-01-27T02:00:01.794Z,34.67
2023-01-27T02:02:30.204Z,34.63
2023-01-27T02:05:08.336Z,35.47
2023-01-27T02:07:46.955Z,32.35
2023-01-27T02:10:14.132Z,28.15
2023-01-27T02:12:41.332Z,35.30
2023-01-27T02:15:09.400Z,32.65
2023-01-27T02:17:36.696Z,30.30
2023-01-27T02:20:06.594Z,30.17
2023-01-27T02:22:45.507Z,31.65
2023-01-27T02:25:23.813Z,35.47
2023-01-27T02:27:50.666Z,36.42
2023-01-27T02:30:18.872Z,39.65
2023-01-27T02:32:45.879Z,37.42
2023-01-27T02:35:19.625Z,28.95
2023-01-27T02:37:48.308Z,29.80
2023-01-27T02:40:16.614Z,35.03
2023-01-27T02:42:44.112Z,27.63
2023-01-27T02:45:12.032Z,27.92
2023-01-27T02:47:39.209Z,32.60
2023-01-27T02:50:07.268Z,33.42
2023-01-27T02:52:34.064Z,30.52
2023-01-27T02:55:00.895Z,29.35
2023-01-27T02:57:27.788Z,27.02
2023-01-27T03:00:15.981Z,29.35
2023-01-27T03:02:42.947Z,31.17
2023-01-27T03:05:09.751Z,28.75
2023-01-27T03:07:36.566Z,31.10
2023-01-27T03:10:03.825Z,30.42
2023-01-27T03:12:30.697Z,34.03
2023-01-27T03:15:16.291Z,30.63
2023-01-27T03:18:01.750Z,31.83
2023-01-27T03:20:28.662Z,32.58
2023-01-27T03:22:55.774Z,33.13
2023-01-27T03:25:24.888Z,30.27
2023-01-27T03:27:55.961Z,33.15
2023-01-27T03:30:28.451Z,25.42
2023-01-27T03:33:07.391Z,29.85
2023-01-27T03:35:48.850Z,28.67
2023-01-27T03:38:38.924Z,32.95
2023-01-27T03:41:24.478Z,28.25
2023-01-27T03:44:09.673Z,31.73
2023-01-27T03:46:36.528Z,31.05
2023-01-27T03:49:03.359Z,26.42
2023-01-27T03:51:30.193Z,31.85
2023-01-27T03:53:57.012Z,30.48
2023-01-27T03:56:24.191Z,29.77
2023-01-27T03:58:51.084Z,25.08
2023-01-27T04:01:23.274Z,32.08
2023-01-27T04:04:10.014Z,19.95
2023-01-27T04:06:58.283Z,24.73
2023-01-27T04:09:34.044Z,32.03
2023-01-27T04:12:04.580Z,29.15
2023-01-27T04:14:39.550Z,28.90
2023-01-27T04:17:17.663Z,27.02
2023-01-27T04:19:45.874Z,24.60
2023-01-27T04:22:15.402Z,27.95
2023-01-27T04:24:42.587Z,26.10
2023-01-27T04:27:12.394Z,23.63
2023-01-27T04:29:41.564Z,23.52
2023-01-27T04:32:13.164Z,23.83
2023-01-27T04:34:40.585Z,22.00
2023-01-27T04:37:09.281Z,20.58
2023-01-27T04:39:36.341Z,24.13
2023-01-27T04:42:03.420Z,22.45
2023-01-27T04:44:30.423Z,23.23
2023-01-27T04:46:57.267Z,23.70
2023-01-27T04:49:26.675Z,22.85
2023-01-27T04:51:54.148Z,17.95
2023-01-27T04:54:21.054Z,20.75
2023-01-27T04:57:03.685Z,16.55
2023-01-27T04:59:30.911Z,20.00
2023-01-27T05:01:58.044Z,16.73
2023-01-27T05:04:26.733Z,16.17
2023-01-27T05:06:54.157Z,16.75
2023-01-27T05:09:20.994Z,17.10
2023-01-27T05:11:47.868Z,15.10
2023-01-27T05:14:14.748Z,17.58
2023-01-27T05:16:41.781Z,19.05
2023-01-27T05:19:09.265Z,20.10
2023-01-27T05:21:36.129Z,20.55
2023-01-27T05:24:04.244Z,21.60
2023-01-27T05:26:31.113Z,20.38
2023-01-27T05:28:58.589Z,19.95
2023-01-27T05:31:28.658Z,21.63
2023-01-27T05:33:56.308Z,19.60
2023-01-27T05:36:24.743Z,21.35
2023-01-27T05:38:52.621Z,21.20
2023-01-27T05:41:20.567Z,20.83
2023-01-27T05:43:51.632Z,18.92
2023-01-27T05:46:21.059Z,24.63
2023-01-27T05:48:50.374Z,22.92
2023-01-27T05:51:19.257Z,21.45
2023-01-27T05:53:46.925Z,23.77
2023-01-27T05:56:16.993Z,20.73
2023-01-27T05:58:44.649Z,22.63
2023-01-27T06:01:19.950Z,20.75
2023-01-27T06:03:48.129Z,19.38
2023-01-27T06:06:17.252Z,22.95
2023-01-27T06:08:45.678Z,21.80
2023-01-27T06:11:13.197Z,24.13
2023-01-27T06:13:40.602Z,28.58
2023-01-27T06:16:10.558Z,27.25
2023-01-27T06:18:38.318Z,27.83
2023-01-27T06:21:07.453Z,27.23
2023-01-27T06:23:35.028Z,29.70
2023-01-27T06:26:12.674Z,24.33
2023-01-27T06:28:40.058Z,27.00
2023-01-27T06:31:10.169Z,27.65
2023-01-27T06:33:37.523Z,26.60
2023-01-27T06:36:07.700Z,27.33
2023-01-27T06:38:35.068Z,22.23
2023-01-27T06:41:02.609Z,23.10
2023-01-27T06:43:29.665Z,25.33
2023-01-27T06:45:59.251Z,23.95
2023-01-27T06:48:27.040Z,24.60
2023-01-27T06:50:54.990Z,24.17
2023-01-27T06:53:22.360Z,27.88
2023-01-27T06:55:49.418Z,23.73
2023-01-27T06:58:16.672Z,27.35
2023-01-27T07:00:43.669Z,27.42
2023-01-27T07:03:12.993Z,28.02
2023-01-27T07:05:41.951Z,28.23
2023-01-27T07:08:09.094Z,32.45
2023-01-27T07:10:35.931Z,30.67
2023-01-27T07:13:11.810Z,32.28
2023-01-27T07:15:39.052Z,35.78
2023-01-27T07:18:05.976Z,34.70
2023-01-27T07:20:36.075Z,35.60
2023-01-27T07:23:06.084Z,37.10
2023-01-27T07:25:35.109Z,37.25
2023-01-27T07:28:03.006Z,33.97
2023-01-27T07:30:31.130Z,28.55
2023-01-27T07:33:09.106Z,32.25
2023-01-27T07:35:37.051Z,32.20
2023-01-27T07:38:05.106Z,28.30
2023-01-27T07:40:33.991Z,29.13
2023-01-27T07:43:01.696Z,30.17
2023-01-27T07:45:29.569Z,28.55
2023-01-27T07:48:07.883Z,28.55
2023-01-27T07:50:41.900Z,26.95
2023-01-27T07:53:10.191Z,24.95
2023-01-27T07:55:37.139Z,24.27
2023-01-27T07:58:04.112Z,21.45
2023-01-27T08:00:31.739Z,25.85
2023-01-27T08:03:00.441Z,27.63
2023-01-27T08:05:28.155Z,26.48
2023-01-27T08:07:58.598Z,23.25
2023-01-27T08:10:26.160Z,23.85
2023-01-27T08:12:53.168Z,24.05
2023-01-27T08:15:20.108Z,22.60
2023-01-27T08:17:57.191Z,22.42
2023-01-27T08:20:26.453Z,21.10
2023-01-27T08:22:53.706Z,21.05
2023-01-27T08:25:20.752Z,20.85
2023-01-27T08:27:55.765Z,22.80
2023-01-27T08:30:23.601Z,21.48
2023-01-27T08:32:50.693Z,19.80
2023-01-27T08:35:17.701Z,20.63
2023-01-27T08:37:48.341Z,21.35
2023-01-27T08:40:15.928Z,17.63
2023-01-27T08:42:42.827Z,20.88
2023-01-27T08:45:09.996Z,18.50
2023-01-27T08:47:36.871Z,19.83
2023-01-27T08:50:03.833Z,16.92
2023-01-27T08:52:31.023Z,16.77
2023-01-27T08:54:58.525Z,17.70
2023-01-27T08:57:25.403Z,16.35
2023-01-27T08:59:52.280Z,15.65
2023-01-27T09:02:20.430Z,17.60
2023-01-27T09:04:47.375Z,18.52
2023-01-27T09:07:14.323Z,17.73
2023-01-27T09:09:41.235Z,15.55
2023-01-27T09:12:08.153Z,16.65
2023-01-27T09:14:35.291Z,15.88
2023-01-27T09:17:02.116Z,18.10
2023-01-27T09:19:28.959Z,16.73
2023-01-27T09:21:55.855Z,17.20
2023-01-27T09:24:23.284Z,18.33
2023-01-27T09:26:50.226Z,17.35
2023-01-27T09:29:17.169Z,19.17
2023-01-27T09:31:44.218Z,16.02
2023-01-27T09:34:11.221Z,20.80
2023-01-27T09:36:44.237Z,19.23
2023-01-27T09:39:13.087Z,20.77
2023-01-27T09:42:14.073Z,16.65
2023-01-27T09:45:18.721Z,18.15
2023-01-27T09:48:00.876Z,17.95
2023-01-27T09:50:37.975Z,17.85
2023-01-27T09:53:20.127Z,18.27
2023-01-27T09:56:01.644Z,14.45
2023-01-27T09:58:37.341Z,18.20
2023-01-27T10:01:33.499Z,16.08
2023-01-27T10:04:28.428Z,18.58
2023-01-27T10:07:19.869Z,16.80
2023-01-27T10:10:00.607Z,16.50
2023-01-27T10:12:50.444Z,17.08
2023-01-27T10:15:32.794Z,16.70
2023-01-27T10:18:22.292Z,12.68
2023-01-27T10:21:01.075Z,19.20
2023-01-27T10:23:48.106Z,15.70
2023-01-27T10:26:28.021Z,16.73
2023-01-27T10:29:10.603Z,16.65
2023-01-27T10:31:44.070Z,18.00
2023-01-27T10:34:26.706Z,16.95
2023-01-27T10:37:10.191Z,19.15
2023-01-27T10:40:03.921Z,20.05
2023-01-27T10:42:41.741Z,19.75
2023-01-27T10:45:32.970Z,20.83
2023-01-27T10:48:21.322Z,22.63
2023-01-27T10:50:57.737Z,23.00
2023-01-27T10:53:51.603Z,23.08
2023-01-27T10:56:33.188Z,24.45
2023-01-27T10:59:10.064Z,27.15
2023-01-27T11:01:45.117Z,23.75
2023-01-27T11:04:25.579Z,24.30
2023-01-27T11:06:54.077Z,27.63
2023-01-27T11:09:34.867Z,28.30
2023-01-27T11:12:09.751Z,25.90
2023-01-27T11:14:47.774Z,28.55
2023-01-27T11:17:23.029Z,26.02
2023-01-27T11:19:58.428Z,30.63
2023-01-27T11:22:36.729Z,31.55
2023-01-27T11:25:25.160Z,30.05
2023-01-27T11:28:07.105Z,31.88
2023-01-27T11:30:53.218Z,29.42
2023-01-27T11:33:58.552Z,32.95
2023-01-27T11:36:26.538Z,25.50
2023-01-27T11:38:55.697Z,27.73
2023-01-27T11:41:23.311Z,23.58
2023-01-27T11:43:50.653Z,23.23
2023-01-27T11:46:23.981Z,26.10
2023-01-27T11:48:55.640Z,23.90
2023-01-27T11:51:24.935Z,27.08
2023-01-27T11:54:25.761Z,25.58
2023-01-27T11:56:52.791Z,26.75
2023-01-27T11:59:38.400Z,23.95
2023-01-27T12:02:08.132Z,28.83
2023-01-27T12:04:49.838Z,22.65
2023-01-27T12:07:23.388Z,24.60
2023-01-27T12:09:50.384Z,25.92
2023-01-27T12:12:27.895Z,22.23
2023-01-27T12:14:59.921Z,25.58
2023-01-27T12:17:40.142Z,26.10
2023-01-27T12:20:25.698Z,22.90
2023-01-27T12:23:00.232Z,25.17
2023-01-27T12:25:31.255Z,26.58
2023-01-27T12:28:02.706Z,20.90
2023-01-27T12:30:34.463Z,21.38
2023-01-27T12:33:19.986Z,19.80
2023-01-27T12:35:50.131Z,23.75
2023-01-27T12:38:24.020Z,21.10
2023-01-27T12:41:03.895Z,24.58
2023-01-27T12:43:30.975Z,21.00
2023-01-27T12:46:28.585Z,19.75
2023-01-27T12:49:10.113Z,21.65
2023-01-27T12:51:45.677Z,22.17
2023-01-27T12:54:22.079Z,23.95
2023-01-27T12:56:53.741Z,19.95
2023-01-27T12:59:23.955Z,21.73
2023-01-27T13:02:19.939Z,21.88
2023-01-27T13:04:59.547Z,22.02
2023-01-27T13:07:33.481Z,21.50
2023-01-27T13:10:06.832Z,20.55
2023-01-27T13:12:50.320Z,20.15
2023-01-27T13:15:20.717Z,23.13
2023-01-27T13:17:50.660Z,26.02
2023-01-27T13:20:38.110Z,21.33
2023-01-27T13:23:28.578Z,21.15
2023-01-27T13:26:04.065Z,22.20
2023-01-27T13:28:53.586Z,18.85
2023-01-27T13:31:49.877Z,19.45
2023-01-27T13:34:23.585Z,19.25
2023-01-27T13:37:16.684Z,18.70
2023-01-27T13:40:04.949Z,23.90
2023-01-27T13:42:37.849Z,20.13
2023-01-27T13:45:07.049Z,23.85
2023-01-27T13:48:00.944Z,20.60
2023-01-27T13:50:42.267Z,23.30
2023-01-27T13:53:13.734Z,27.27
2023-01-27T13:56:12.863Z,21.98
2023-01-27T13:58:44.433Z,23.58
2023-01-27T14:01:26.765Z,25.02
2023-01-27T14:04:15.169Z,24.77
2023-01-27T14:07:13.107Z,27.75
2023-01-27T14:10:09.944Z,24.83
2023-01-27T14:12:45.814Z,29.30
2023-01-27T14:15:46.923Z,29.70
2023-01-27T14:18:25.142Z,32.72
2023-01-27T14:20:58.346Z,33.83
2023-01-27T14:23:33.146Z,30.10
2023-01-27T14:26:12.104Z,28.90
2023-01-27T14:28:41.968Z,28.42
2023-01-27T14:31:18.772Z,28.00
2023-01-27T14:34:03.959Z,31.20
2023-01-27T14:36:44.962Z,29.27
2023-01-27T14:39:25.847Z,31.10
2023-01-27T14:42:08.097Z,32.75
2023-01-27T14:45:01.178Z,34.80
2023-01-27T14:47:44.117Z,29.02
2023-01-27T14:53:22.195Z,29.60
2023-01-27T14:56:16.057Z,24.10
2023-01-27T14:58:54.075Z,27.90
2023-01-27T15:01:36.657Z,25.58
2023-01-27T15:04:15.807Z,26.05
2023-01-27T15:06:53.130Z,25.15
2023-01-27T15:09:58.975Z,25.88
2023-01-27T15:12:35.179Z,24.73
2023-01-27T15:15:31.384Z,25.77
2023-01-27T15:18:34.943Z,27.23
2023-01-27T15:21:31.787Z,24.73
2023-01-27T15:24:07.834Z,27.25
2023-01-27T15:26:37.538Z,25.40
2023-01-27T15:29:05.779Z,20.70
2023-01-27T15:31:33.468Z,26.83
2023-01-27T15:34:05.033Z,24.83
2023-01-27T15:36:40.262Z,24.02
2023-01-27T15:39:10.207Z,22.17
2023-01-27T15:41:50.311Z,23.77
2023-01-27T15:44:59.964Z,25.83
2023-01-27T15:47:31.507Z,21.85
2023-01-27T15:50:07.141Z,30.95
2023-01-27T15:53:19.815Z,43.03
2023-01-27T15:55:56.703Z,26.63
2023-01-27T15:58:34.785Z,35.00
2023-01-27T16:01:09.727Z,32.17
2023-01-27T16:06:09.856Z,21.75
2023-01-27T16:08:59.594Z,23.45
2023-01-27T16:11:29.522Z,32.78
2023-01-27T16:14:23.251Z,23.95
2023-01-27T16:16:51.140Z,22.70
2023-01-27T16:19:32.918Z,22.23
2023-01-27T16:22:12.926Z,23.67
2023-01-27T16:24:45.717Z,21.98
2023-01-27T16:29:58.934Z,21.30
2023-01-27T16:32:35.618Z,18.88
2023-01-27T16:35:05.871Z,22.65
2023-01-27T16:37:38.420Z,18.38
2023-01-27T16:40:18.043Z,21.92
2023-01-27T16:42:50.675Z,23.15
2023-01-27T16:45:22.099Z,20.52
2023-01-27T16:48:03.382Z,19.73
2023-01-27T16:50:39.418Z,23.58
2023-01-27T16:53:14.570Z,20.25
2023-01-27T16:55:41.598Z,20.73
2023-01-27T16:58:46.224Z,19.83
2023-01-27T17:01:26.769Z,19.48
2023-01-27T17:04:00.686Z,17.23
2023-01-27T17:06:30.895Z,21.23
2023-01-27T17:08:57.753Z,18.00
2023-01-27T17:11:33.130Z,20.58
2023-01-27T17:14:21.331Z,18.60
2023-01-27T17:16:59.123Z,19.70
2023-01-27T17:19:34.312Z,17.02
2023-01-27T17:22:13.719Z,16.88
2023-01-27T17:24:52.930Z,19.20
2023-01-27T17:27:39.718Z,19.63
2023-01-27T17:30:24.103Z,19.08
2023-01-27T17:32:54.917Z,21.52
2023-01-27T17:35:32.961Z,22.05
2023-01-27T17:38:25.020Z,20.67
2023-01-27T17:40:54.172Z,19.92
2023-01-27T17:43:32.893Z,20.45
2023-01-27T17:46:05.898Z,21.17
2023-01-27T17:48:35.017Z,19.05
2023-01-27T17:51:05.397Z,19.77
2023-01-27T17:53:42.969Z,20.02
2023-01-27T17:56:20.493Z,23.48
2023-01-27T17:58:52.703Z,20.48
2023-01-27T18:01:24.034Z,18.65
2023-01-27T18:03:56.937Z,19.80
2023-01-27T18:06:28.046Z,20.30
2023-01-27T18:08:57.355Z,19.85
2023-01-27T18:11:33.944Z,19.70
2023-01-27T18:14:11.445Z,17.15
2023-01-27T18:16:38.488Z,17.23
2023-01-27T18:19:20.848Z,16.92
2023-01-27T18:21:48.255Z,16.60
2023-01-27T18:24:23.292Z,17.55
2023-01-27T18:26:50.669Z,18.20
2023-01-27T18:29:23.511Z,17.60
2023-01-27T18:34:32.699Z,17.55
2023-01-27T18:37:22.212Z,18.48
2023-01-27T18:39:49.540Z,19.70
2023-01-27T18:46:28.548Z,18.25
2023-01-27T18:48:55.664Z,16.05
2023-01-27T18:51:22.997Z,18.50
2023-01-27T18:53:50.076Z,15.70
2023-01-27T18:56:17.005Z,17.40
2023-01-27T18:58:43.794Z,18.88
2023-01-27T19:01:19.774Z,20.20
2023-01-27T19:03:46.574Z,17.08
2023-01-27T19:06:19.249Z,15.57
2023-01-27T19:08:48.827Z,16.55
2023-01-27T19:11:25.083Z,19.20
2023-01-27T19:13:53.665Z,18.58
2023-01-27T19:16:23.004Z,16.23
2023-01-27T19:18:50.010Z,18.02
2023-01-27T19:21:24.327Z,20.02
2023-01-27T19:23:51.316Z,17.73
2023-01-27T19:26:22.291Z,17.95
2023-01-27T19:28:55.037Z,17.55
2023-01-27T19:31:22.229Z,19.63
2023-01-27T19:33:49.354Z,18.58
2023-01-27T19:36:27.827Z,17.17
2023-01-27T19:39:07.742Z,17.45
2023-01-27T19:41:38.145Z,19.75
2023-01-27T19:44:10.097Z,15.93
2023-01-27T19:46:39.582Z,17.30
2023-01-27T19:49:09.871Z,18.25
2023-01-27T19:51:37.161Z,17.42
2023-01-27T19:54:04.415Z,17.80
2023-01-27T19:56:34.475Z,17.23
2023-01-27T19:59:01.794Z,19.45
2023-01-27T20:01:28.983Z,15.57
2023-01-27T20:03:58.431Z,16.13
2023-01-27T20:06:28.610Z,18.75
2023-01-27T20:08:58.995Z,19.98
2023-01-27T20:11:40.362Z,18.42
2023-01-27T20:14:18.627Z,16.77
2023-01-27T20:16:46.322Z,17.92
2023-01-27T20:19:15.183Z,15.20
2023-01-27T20:21:43.629Z,16.98
2023-01-27T20:24:18.490Z,23.85
2023-01-27T20:26:46.027Z,15.73
2023-01-27T20:29:14.119Z,19.65
2023-01-27T20:31:41.843Z,15.45
2023-01-27T20:34:11.778Z,18.17
2023-01-27T20:36:38.623Z,17.83
2023-01-27T20:39:05.586Z,14.90
2023-01-27T20:41:32.859Z,16.40
2023-01-27T20:44:03.039Z,15.80
2023-01-27T20:46:30.801Z,18.17
2023-01-27T20:49:00.911Z,17.48
2023-01-27T20:51:27.788Z,14.98
2023-01-27T20:54:00.127Z,14.77
2023-01-27T20:56:27.142Z,14.55
2023-01-27T20:58:54.426Z,15.32
2023-01-27T21:01:24.545Z,16.08
2023-01-27T21:03:51.860Z,16.27
2023-01-27T21:06:22.355Z,17.70
2023-01-27T21:08:49.796Z,14.73
2023-01-27T21:11:19.633Z,14.20
2023-01-27T21:13:47.098Z,15.38
2023-01-27T21:16:14.403Z,16.55
2023-01-27T21:18:42.066Z,14.88
2023-01-27T21:21:22.099Z,15.50
2023-01-27T21:23:51.481Z,15.52
2023-01-27T21:26:18.453Z,15.25
2023-01-27T21:28:45.589Z,15.88
2023-01-27T21:31:18.594Z,16.70
2023-01-27T21:33:45.886Z,18.13
2023-01-27T21:36:13.212Z,15.98
2023-01-27T21:38:40.479Z,14.57
2023-01-27T21:41:13.677Z,14.25
2023-01-27T21:43:59.306Z,16.17
2023-01-27T21:46:26.112Z,12.65
2023-01-27T21:48:52.873Z,13.98
2023-01-27T21:51:19.735Z,14.38
2023-01-27T21:53:46.461Z,14.10
2023-01-27T21:56:13.318Z,15.15
2023-01-27T21:58:40.257Z,18.02
2023-01-27T22:01:08.180Z,19.20
2023-01-27T22:03:36.966Z,16.20
2023-01-27T22:06:08.469Z,12.70
2023-01-27T22:08:36.075Z,15.32
2023-01-27T22:11:08.047Z,15.35
2023-01-27T22:13:36.096Z,15.38
2023-01-27T22:16:04.254Z,15.10
2023-01-27T22:18:31.365Z,13.85
2023-01-27T22:21:01.309Z,13.55
2023-01-27T22:23:28.123Z,15.60
2023-01-27T22:25:54.907Z,15.07
2023-01-27T22:28:24.019Z,15.20
2023-01-27T22:30:51.134Z,15.32
2023-01-27T22:33:18.017Z,13.57
2023-01-27T22:35:45.172Z,15.32
2023-01-27T22:38:12.083Z,15.50
2023-01-27T22:40:38.999Z,12.13
2023-01-27T22:43:09.345Z,13.48
2023-01-27T22:45:39.889Z,13.32
2023-01-27T22:48:08.643Z,13.18
2023-01-27T22:50:36.086Z,14.35
2023-01-27T22:53:04.098Z,12.52
2023-01-27T22:55:30.887Z,16.73
2023-01-27T22:57:57.699Z,14.13
2023-01-27T23:00:24.566Z,13.57
2023-01-27T23:02:51.409Z,13.90
2023-01-27T23:05:18.201Z,13.30
2023-01-27T23:07:47.518Z,19.52
2023-01-27T23:10:14.312Z,22.50
2023-01-27T23:12:41.396Z,15.05
2023-01-27T23:15:08.683Z,14.70
2023-01-27T23:17:35.531Z,11.70
2023-01-27T23:20:05.269Z,12.80
2023-01-27T23:22:32.434Z,13.75
2023-01-27T23:24:59.185Z,11.73
2023-01-27T23:27:28.570Z,11.63
2023-01-27T23:29:55.448Z,10.43
2023-01-27T23:32:22.336Z,11.38
2023-01-27T23:34:49.078Z,10.23
2023-01-27T23:37:16.008Z,12.85
2023-01-27T23:39:48.366Z,12.77
2023-01-27T23:42:16.413Z,11.60
2023-01-27T23:44:43.216Z,11.45
2023-01-27T23:47:14.027Z,11.48
2023-01-27T23:49:41.275Z,11.52
2023-01-27T23:52:08.374Z,10.77
2023-01-27T23:54:35.230Z,12.73
2023-01-27T23:57:01.984Z,9.43
2023-01-27T23:59:28.722Z,11.70
